createdAt,value
2023-01-19T00:01:05.581Z,89.21
2023-01-19T00:06:07.587Z,89.50
2023-01-19T00:11:09.085Z,89.59
2023-01-19T00:16:10.572Z,88.75
2023-01-19T00:21:14.712Z,88.80
2023-01-19T00:26:17.274Z,88.55
2023-01-19T00:31:20.650Z,88.33
2023-01-19T00:36:22.209Z,88.69
2023-01-19T00:41:43.954Z,88.80
2023-01-19T00:46:45.359Z,88.37
2023-01-19T00:51:46.760Z,88.35
2023-01-19T00:56:48.369Z,88.68
2023-01-19T01:01:49.877Z,87.73
2023-01-19T01:06:51.357Z,87.80
2023-01-19T01:11:53.158Z,87.51
2023-01-19T01:16:55.092Z,87.26
2023-01-19T01:21:56.653Z,87.06
2023-01-19T01:26:58.227Z,86.74
2023-01-19T01:31:59.767Z,86.47
2023-01-19T01:37:01.967Z,86.75
2023-01-19T01:42:14.320Z,86.72
2023-01-19T01:47:18.046Z,86.76
2023-01-19T01:52:22.594Z,86.69
2023-01-19T01:57:27.941Z,85.96
2023-01-19T02:02:51.184Z,85.86
2023-01-19T02:08:27.812Z,85.47
2023-01-19T02:13:30.459Z,85.87
2023-01-19T02:18:32.828Z,85.86
2023-01-19T02:23:47.367Z,85.53
2023-01-19T02:28:53.558Z,85.09
2023-01-19T02:33:55.801Z,85.61
2023-01-19T02:39:00.157Z,85.01
2023-01-19T02:44:02.489Z,85.37
2023-01-19T02:49:04.116Z,85.02
2023-01-19T02:54:26.929Z,85.06
2023-01-19T02:59:53.665Z,85.15
2023-01-19T03:05:23.167Z,85.14
2023-01-19T03:10:39.768Z,84.90
2023-01-19T03:15:51.529Z,84.77
2023-01-19T03:20:57.559Z,84.50
2023-01-19T03:26:01.743Z,85.14
2023-01-19T03:31:10.793Z,84.84
2023-01-19T03:36:21.513Z,84.93
2023-01-19T03:41:25.210Z,85.03
2023-01-19T03:46:27.885Z,85.23
2023-01-19T03:51:29.749Z,85.59
2023-01-19T03:56:31.610Z,85.48
2023-01-19T04:01:33.159Z,85.50
2023-01-19T04:06:34.690Z,85.31
2023-01-19T04:11:36.145Z,85.46
2023-01-19T04:16:37.620Z,85.75
2023-01-19T04:21:39.041Z,86.02
2023-01-19T04:26:40.469Z,85.75
2023-01-19T04:31:41.914Z,86.71
2023-01-19T04:36:45.241Z,86.35
2023-01-19T04:41:46.753Z,86.12
2023-01-19T04:46:51.929Z,85.93
2023-01-19T04:51:54.152Z,85.49
2023-01-19T04:56:55.556Z,85.75
2023-01-19T05:01:57.120Z,85.32
2023-01-19T05:06:58.696Z,85.46
2023-01-19T05:12:00.166Z,85.92
2023-01-19T05:17:03.243Z,85.76
2023-01-19T05:22:06.246Z,85.51
2023-01-19T05:27:07.940Z,85.34
2023-01-19T05:32:09.529Z,85.27
2023-01-19T05:37:11.613Z,85.02
2023-01-19T05:42:13.056Z,85.72
2023-01-19T05:47:14.449Z,85.71
2023-01-19T05:52:16.334Z,85.58
2023-01-19T05:57:18.137Z,85.61
2023-01-19T06:02:19.662Z,86.07
2023-01-19T06:07:21.511Z,85.76
2023-01-19T06:12:23.961Z,85.96
2023-01-19T06:17:25.340Z,86.60
2023-01-19T06:22:26.733Z,86.51
2023-01-19T06:27:28.356Z,86.92
2023-01-19T06:32:30.925Z,85.94
2023-01-19T06:37:32.349Z,86.27
2023-01-19T06:42:34.364Z,85.83
2023-01-19T06:47:35.775Z,85.36
2023-01-19T06:52:42.263Z,84.36
2023-01-19T06:57:44.987Z,84.33
2023-01-19T07:02:46.524Z,84.50
2023-01-19T07:07:55.568Z,84.26
2023-01-19T07:12:58.142Z,84.27
2023-01-19T07:18:01.607Z,84.04
2023-01-19T07:23:03.676Z,84.39
2023-01-19T07:28:05.206Z,83.81
2023-01-19T07:33:06.972Z,84.04
2023-01-19T07:38:08.386Z,83.50
2023-01-19T07:43:10.089Z,83.31
2023-01-19T07:48:11.586Z,83.05
2023-01-19T07:53:13.003Z,83.25
2023-01-19T07:58:14.840Z,82.10
2023-01-19T08:03:16.759Z,81.68
2023-01-19T08:08:19.053Z,81.68
2023-01-19T08:13:20.504Z,81.70
2023-01-19T08:18:22.754Z,82.61
2023-01-19T08:23:24.264Z,80.81
2023-01-19T08:28:26.129Z,80.49
2023-01-19T08:33:27.608Z,80.08
2023-01-19T08:38:29.082Z,79.88
2023-01-19T08:43:30.522Z,79.35
2023-01-19T08:48:35.618Z,79.13
2023-01-19T08:53:37.922Z,78.57
2023-01-19T08:58:40.843Z,78.07
2023-01-19T09:03:43.780Z,78.01
2023-01-19T09:08:46.690Z,78.63
2023-01-19T09:13:48.127Z,78.17
2023-01-19T09:18:49.637Z,79.02
2023-01-19T09:23:51.284Z,77.56
2023-01-19T09:28:53.029Z,76.64
2023-01-19T09:33:54.515Z,76.25
2023-01-19T09:38:55.956Z,75.90
2023-01-19T09:44:00.015Z,76.21
2023-01-19T09:49:13.661Z,74.07
2023-01-19T09:54:23.373Z,72.85
2023-01-19T09:59:33.399Z,73.71
2023-01-19T10:04:40.420Z,74.54
2023-01-19T10:10:20.327Z,74.26
2023-01-19T10:15:47.842Z,75.80
2023-01-19T10:20:53.723Z,76.79
2023-01-19T10:25:57.662Z,78.70
2023-01-19T10:30:59.265Z,81.17
2023-01-19T10:36:05.424Z,83.20
2023-01-19T10:41:15.904Z,83.48
2023-01-19T10:46:21.635Z,84.14
2023-01-19T10:51:23.449Z,82.54
2023-01-19T10:56:32.585Z,82.24
2023-01-19T11:01:37.060Z,82.38
2023-01-19T11:06:38.737Z,81.22
2023-01-19T11:11:46.378Z,81.14
2023-01-19T11:16:58.734Z,80.27
2023-01-19T11:22:21.558Z,80.81
2023-01-19T11:27:23.051Z,80.80
2023-01-19T11:32:27.444Z,80.43
2023-01-19T11:37:31.540Z,80.21
2023-01-19T11:42:34.509Z,79.73
2023-01-19T11:47:42.802Z,79.18
2023-01-19T11:53:04.409Z,79.21
2023-01-19T11:58:06.069Z,80.04
2023-01-19T12:03:32.663Z,79.80
2023-01-19T12:08:42.561Z,79.81
2023-01-19T12:13:46.103Z,79.91
2023-01-19T12:19:10.634Z,79.70
2023-01-19T12:24:23.796Z,79.37
2023-01-19T12:29:31.244Z,79.17
2023-01-19T12:34:51.827Z,78.82
2023-01-19T12:39:54.674Z,78.98
2023-01-19T12:45:14.892Z,79.60
2023-01-19T12:50:20.395Z,79.58
2023-01-19T12:55:31.843Z,79.70
2023-01-19T13:00:33.350Z,79.69
2023-01-19T13:05:40.806Z,79.61
2023-01-19T13:11:02.034Z,80.32
2023-01-19T13:16:18.836Z,80.69
2023-01-19T13:21:44.706Z,80.23
2023-01-19T13:26:49.513Z,80.06
2023-01-19T13:31:55.424Z,79.87
2023-01-19T13:36:59.332Z,80.00
2023-01-19T13:42:05.701Z,79.12
2023-01-19T13:47:19.270Z,79.88
2023-01-19T13:52:28.743Z,79.55
2023-01-19T13:57:32.477Z,80.30
2023-01-19T14:02:34.500Z,79.76
2023-01-19T14:07:36.128Z,79.29
2023-01-19T14:12:48.176Z,79.55
2023-01-19T14:18:24.984Z,79.67
2023-01-19T14:23:45.032Z,79.57
2023-01-19T14:28:47.299Z,78.70
2023-01-19T14:33:52.135Z,79.11
2023-01-19T14:38:56.173Z,78.84
2023-01-19T14:43:59.086Z,78.53
2023-01-19T14:49:06.459Z,78.51
2023-01-19T14:54:16.596Z,79.17
2023-01-19T14:59:18.144Z,80.23
2023-01-19T15:04:19.594Z,80.02
2023-01-19T15:09:21.175Z,80.87
2023-01-19T15:14:22.911Z,80.92
2023-01-19T15:19:24.457Z,81.18
2023-01-19T15:24:25.917Z,81.98
2023-01-19T15:29:29.190Z,81.62
2023-01-19T15:34:31.266Z,82.01
2023-01-19T15:39:32.865Z,82.42
2023-01-19T15:44:34.416Z,82.85
2023-01-19T15:49:35.981Z,82.71
2023-01-19T15:54:37.806Z,83.19
2023-01-19T15:59:39.248Z,83.38
2023-01-19T16:04:40.736Z,83.62
2023-01-19T16:09:42.127Z,84.42
2023-01-19T16:14:43.516Z,85.28
2023-01-19T16:19:44.928Z,84.87
2023-01-19T16:24:46.465Z,85.58
2023-01-19T16:29:47.998Z,86.02
2023-01-19T16:34:49.458Z,87.31
2023-01-19T16:39:51.563Z,86.55
2023-01-19T16:44:54.595Z,86.76
2023-01-19T16:49:56.138Z,87.43
2023-01-19T16:54:57.548Z,86.49
2023-01-19T16:59:59.016Z,86.24
2023-01-19T17:05:00.542Z,86.85
2023-01-19T17:10:02.025Z,87.13
2023-01-19T17:15:03.658Z,87.14
2023-01-19T17:20:05.601Z,87.07
2023-01-19T17:25:07.635Z,87.25
2023-01-19T17:30:10.051Z,87.32
2023-01-19T17:35:11.710Z,87.52
2023-01-19T17:40:13.480Z,88.20
2023-01-19T17:45:15.239Z,88.43
2023-01-19T17:50:17.541Z,88.75
2023-01-19T17:55:19.815Z,88.32
2023-01-19T18:00:21.636Z,88.23
2023-01-19T18:05:23.262Z,88.66
2023-01-19T18:10:24.705Z,88.74
2023-01-19T18:15:26.185Z,88.95
2023-01-19T18:20:27.618Z,89.61
2023-01-19T18:25:29.077Z,89.57
2023-01-19T18:30:31.113Z,90.26
2023-01-19T18:35:32.552Z,91.02
2023-01-19T18:40:34.073Z,90.07
2023-01-19T18:45:36.981Z,90.46
2023-01-19T18:50:38.483Z,90.28
2023-01-19T18:55:39.937Z,92.14
2023-01-19T19:00:41.332Z,90.70
2023-01-19T19:05:43.663Z,90.93
2023-01-19T19:10:45.328Z,91.59
2023-01-19T19:15:46.761Z,91.08
2023-01-19T19:20:48.185Z,90.28
2023-01-19T19:25:49.712Z,90.11
2023-01-19T19:31:02.583Z,90.07
2023-01-19T19:36:05.195Z,90.49
2023-01-19T19:41:08.369Z,90.25
2023-01-19T19:46:15.975Z,90.30
2023-01-19T19:51:23.703Z,90.03
2023-01-19T19:56:27.963Z,90.49
2023-01-19T20:01:33.479Z,90.45
2023-01-19T20:06:38.903Z,90.39
2023-01-19T20:11:41.395Z,90.32
2023-01-19T20:16:43.441Z,90.71
2023-01-19T20:21:44.859Z,90.79
2023-01-19T20:26:50.285Z,91.21
2023-01-19T20:31:54.862Z,90.65
2023-01-19T20:36:56.282Z,90.63
2023-01-19T20:41:57.683Z,90.66
2023-01-19T20:46:59.177Z,91.22
2023-01-19T20:52:00.866Z,91.87
2023-01-19T20:57:02.348Z,91.23
2023-01-19T21:02:05.949Z,92.05
2023-01-19T21:07:08.967Z,92.66
2023-01-19T21:12:10.380Z,92.54
2023-01-19T21:17:11.937Z,92.83
2023-01-19T21:22:13.331Z,92.33
2023-01-19T21:27:14.946Z,91.68
2023-01-19T21:32:16.383Z,91.99
2023-01-19T21:37:17.888Z,91.75
2023-01-19T21:42:19.295Z,91.73
2023-01-19T21:47:20.919Z,91.59
2023-01-19T21:52:22.326Z,91.89
2023-01-19T21:57:23.755Z,91.29
2023-01-19T22:02:37.897Z,91.52
2023-01-19T22:07:40.168Z,91.95
2023-01-19T22:12:41.591Z,92.27
2023-01-19T22:17:43.025Z,92.10
2023-01-19T22:22:45.569Z,92.39
2023-01-19T22:27:48.336Z,92.77
2023-01-19T22:32:49.841Z,92.49
2023-01-19T22:37:51.261Z,93.08
2023-01-19T22:42:52.673Z,92.70
2023-01-19T22:47:54.064Z,92.50
2023-01-19T22:52:55.788Z,92.40
2023-01-19T22:57:57.209Z,92.18
2023-01-19T23:02:58.579Z,92.22
2023-01-19T23:08:00.004Z,92.40
2023-01-19T23:13:01.429Z,92.04
2023-01-19T23:18:02.881Z,92.43
2023-01-19T23:23:04.843Z,92.30
2023-01-19T23:28:06.556Z,92.16
2023-01-19T23:33:07.956Z,92.65
2023-01-19T23:38:09.513Z,92.63
2023-01-19T23:43:11.004Z,92.99
2023-01-19T23:48:12.467Z,93.78
2023-01-19T23:53:13.893Z,94.22
2023-01-19T23:58:15.309Z,94.46
